world map with QSA marked

QSA - Airport

This information may not be accurate or current and is not valid for navigation or flight planning. No warranty of fitness for any purpose is made or implied.

flag of Cataloniaflag of Spain

Donate via PayPal

Additional information is available on the NEW Great Circle Mapper

Location
City:  Sabadell, Catalonia, Spain
ICAO / IATA:LELL / QSA

Details
Type:Airport (Aerodrome, Airfield)
Latitude:41°31'15"N (41.520902)
Longitude:2°06'18"E (2.105028)
Elevation:485 ft (148 m)
Runways:1
Longest:2953 × 98 ft (900 × 30 m)

Weather
METAR:LELL  041400Z 17006KT 140V220 CAVOK 13/M04 Q1024
TAF:LELL  040800Z 0409/0509 23005KT 9999 FEW040 TX13/0413Z TN03/0506Z

Related Locations
Nearby:
Farthest:CHT: 12258 mi / 19727 km
Waitangi [Tuuta], CIT, NZ

Find:

   beyond  
but within

Other Information
Maps:
Sources:

  


 


Great Circle Mapper   Great Circle Mapper
Great Circle Mapper FAQ   Great Circle Mapper FAQ
  Karl's Home Page
KLSē   KLSē Home
   GC on Facebook
Airlines of the World   Airlines of the World
Donate via PayPal


Copyright © 2004-2019, Karl L. Swartz. All rights reserved.
All trademarks mentioned herein belong to their respective owners.

Please see credits for attribution and copyright information.

Karl Swartz <karl@kls2.com>
  Powered by FreeBSD
Valid HTML 4.01!
Labeled with ICRA
hCard Microformat
Geo Microformat